Chicago/Gary

Airport
ICAO code: 
KGYY
Summary
ICAO Region: 
NAM
Territory: 
Location: 
Gary, Lake County, Indiana,
Elevation: 
591 ft
Coordinates: 
Aerial View: 
41° 37' 6.138" N, 87° 24' 48.366" W
Airport WX: 
Lake Effect Snow
Metar
Observation
KGYY 060815Z AUTO 26010G16KT 10SM SCT019 03/01 A2972 RMK AO2 T00320008
Station
Gary Regional
Date/Time
2021-12-06 08:15:00
Wind direction
260°
Wind speed
10 kts
Lowest cloud amount
scattered clouds
Temperature
3.2°C
Dew point
0.8°C
Humidity
84%
Weather condition
n/a

Description

Gary/Chicago International Airport is a public airport located 5 km northwest of the central business district of Gary, a city in Lake County, Indiana, United States. The airport, which serves the Chicago metropolitan area, is 40 km southeast of the Chicago Loop.

Climatology

Humid continental climate (Köppen climate classification Dfa) - characterized by four seasons: cold, windy, snowy winters, mild springs, hot, humid summers, and crisp and relatively short autumns. Precipitation reaches its lowest in January and February and peaks in summer and latter half of spring.

Runways

Designator Length Width Surface Rops
2/20 1098 30 ASP Yes/Yes
12/30 2135 46 ASP Yes/Yes
Airport map: 
Aerial View: 

SKYbrary Partners:

Safety knowledge contributed by: